sensor_id;sensor_type;location;lat;lon;timestamp;temperature;humidity
1415;DHT22;702;49.466;11.086;2022-12-20T00:00:07;1.50;87.10
1415;DHT22;702;49.466;11.086;2022-12-20T00:02:36;1.60;87.10
1415;DHT22;702;49.466;11.086;2022-12-20T00:05:04;1.70;86.00
1415;DHT22;702;49.466;11.086;2022-12-20T00:07:31;1.60;86.10
1415;DHT22;702;49.466;11.086;2022-12-20T00:09:58;1.70;86.50
1415;DHT22;702;49.466;11.086;2022-12-20T00:12:25;1.70;85.60
1415;DHT22;702;49.466;11.086;2022-12-20T00:14:54;1.70;85.80
1415;DHT22;702;49.466;11.086;2022-12-20T00:17:21;1.70;85.60
1415;DHT22;702;49.466;11.086;2022-12-20T00:19:48;1.70;86.20
1415;DHT22;702;49.466;11.086;2022-12-20T00:22:15;1.60;86.10
1415;DHT22;702;49.466;11.086;2022-12-20T00:24:43;1.60;85.90
1415;DHT22;702;49.466;11.086;2022-12-20T00:27:10;1.70;85.70
1415;DHT22;702;49.466;11.086;2022-12-20T00:29:37;1.70;85.90
1415;DHT22;702;49.466;11.086;2022-12-20T00:32:07;1.80;85.80
1415;DHT22;702;49.466;11.086;2022-12-20T00:34:34;1.90;85.30
1415;DHT22;702;49.466;11.086;2022-12-20T00:37:01;1.90;84.60
1415;DHT22;702;49.466;11.086;2022-12-20T00:39:28;2.00;84.90
1415;DHT22;702;49.466;11.086;2022-12-20T00:41:55;1.90;84.00
1415;DHT22;702;49.466;11.086;2022-12-20T00:44:22;1.90;84.80
1415;DHT22;702;49.466;11.086;2022-12-20T00:46:49;1.80;84.50
1415;DHT22;702;49.466;11.086;2022-12-20T00:49:18;1.70;85.00
1415;DHT22;702;49.466;11.086;2022-12-20T00:51:45;1.70;85.70
1415;DHT22;702;49.466;11.086;2022-12-20T00:54:13;1.80;85.10
1415;DHT22;702;49.466;11.086;2022-12-20T00:56:40;1.90;84.80
1415;DHT22;702;49.466;11.086;2022-12-20T00:59:07;1.90;84.60
1415;DHT22;702;49.466;11.086;2022-12-20T01:01:35;1.90;84.50
1415;DHT22;702;49.466;11.086;2022-12-20T01:04:02;1.90;84.30
1415;DHT22;702;49.466;11.086;2022-12-20T01:06:31;1.90;84.20
1415;DHT22;702;49.466;11.086;2022-12-20T01:08:59;2.00;84.30
1415;DHT22;702;49.466;11.086;2022-12-20T01:11:28;1.90;84.30
1415;DHT22;702;49.466;11.086;2022-12-20T01:14:02;1.80;84.80
1415;DHT22;702;49.466;11.086;2022-12-20T01:16:33;1.80;85.50
1415;DHT22;702;49.466;11.086;2022-12-20T01:19:01;1.70;85.30
1415;DHT22;702;49.466;11.086;2022-12-20T01:21:30;1.80;85.50
1415;DHT22;702;49.466;11.086;2022-12-20T01:23:57;1.80;85.50
1415;DHT22;702;49.466;11.086;2022-12-20T01:26:26;1.80;85.60
1415;DHT22;702;49.466;11.086;2022-12-20T01:28:56;1.80;85.50
1415;DHT22;702;49.466;11.086;2022-12-20T01:31:26;1.80;85.10
1415;DHT22;702;49.466;11.086;2022-12-20T01:33:54;1.70;85.70
1415;DHT22;702;49.466;11.086;2022-12-20T01:36:23;1.70;86.50
1415;DHT22;702;49.466;11.086;2022-12-20T01:38:56;1.70;86.50
1415;DHT22;702;49.466;11.086;2022-12-20T01:41:24;1.70;86.30
1415;DHT22;702;49.466;11.086;2022-12-20T01:43:54;1.70;86.40
1415;DHT22;702;49.466;11.086;2022-12-20T01:46:24;1.70;86.60
1415;DHT22;702;49.466;11.086;2022-12-20T01:48:57;1.60;86.70
1415;DHT22;702;49.466;11.086;2022-12-20T01:51:26;1.50;87.60
1415;DHT22;702;49.466;11.086;2022-12-20T01:54:01;1.40;88.00
1415;DHT22;702;49.466;11.086;2022-12-20T01:56:31;1.40;88.80
1415;DHT22;702;49.466;11.086;2022-12-20T01:58:59;1.40;88.70
1415;DHT22;702;49.466;11.086;2022-12-20T02:01:26;1.50;88.70
1415;DHT22;702;49.466;11.086;2022-12-20T02:03:54;1.40;88.40
1415;DHT22;702;49.466;11.086;2022-12-20T02:06:23;1.40;88.80
1415;DHT22;702;49.466;11.086;2022-12-20T02:08:51;1.40;88.50
1415;DHT22;702;49.466;11.086;2022-12-20T02:11:49;1.30;88.50
1415;DHT22;702;49.466;11.086;2022-12-20T02:14:35;1.30;88.50
1415;DHT22;702;49.466;11.086;2022-12-20T02:17:14;1.30;89.60
1415;DHT22;702;49.466;11.086;2022-12-20T02:23:09;1.40;88.30
1415;DHT22;702;49.466;11.086;2022-12-20T02:25:50;1.50;88.40
1415;DHT22;702;49.466;11.086;2022-12-20T02:28:39;1.50;88.10
1415;DHT22;702;49.466;11.086;2022-12-20T02:31:22;1.50;87.50
1415;DHT22;702;49.466;11.086;2022-12-20T02:33:54;1.60;87.40
1415;DHT22;702;49.466;11.086;2022-12-20T02:36:23;1.60;87.20
1415;DHT22;702;49.466;11.086;2022-12-20T02:38:51;1.60;86.50
1415;DHT22;702;49.466;11.086;2022-12-20T02:41:21;1.60;86.80
1415;DHT22;702;49.466;11.086;2022-12-20T02:43:55;1.60;86.40
1415;DHT22;702;49.466;11.086;2022-12-20T02:46:43;1.60;87.20
1415;DHT22;702;49.466;11.086;2022-12-20T02:49:15;1.70;86.40
1415;DHT22;702;49.466;11.086;2022-12-20T02:51:46;1.70;85.90
1415;DHT22;702;49.466;11.086;2022-12-20T02:54:15;1.70;86.20
1415;DHT22;702;49.466;11.086;2022-12-20T02:56:48;1.60;86.10
1415;DHT22;702;49.466;11.086;2022-12-20T02:59:21;1.70;86.80
1415;DHT22;702;49.466;11.086;2022-12-20T03:01:53;1.60;86.60
1415;DHT22;702;49.466;11.086;2022-12-20T03:04:23;1.60;87.20
1415;DHT22;702;49.466;11.086;2022-12-20T03:06:56;1.60;87.20
1415;DHT22;702;49.466;11.086;2022-12-20T03:09:26;1.60;87.50
1415;DHT22;702;49.466;11.086;2022-12-20T03:11:54;1.60;87.60
1415;DHT22;702;49.466;11.086;2022-12-20T03:14:22;1.70;87.50
1415;DHT22;702;49.466;11.086;2022-12-20T03:16:49;1.60;87.20
1415;DHT22;702;49.466;11.086;2022-12-20T03:19:17;1.70;87.10
1415;DHT22;702;49.466;11.086;2022-12-20T03:21:45;1.70;86.60
1415;DHT22;702;49.466;11.086;2022-12-20T03:24:12;1.70;86.50
1415;DHT22;702;49.466;11.086;2022-12-20T03:26:40;1.70;86.30
1415;DHT22;702;49.466;11.086;2022-12-20T03:29:09;1.80;86.10
1415;DHT22;702;49.466;11.086;2022-12-20T03:31:36;1.80;85.40
1415;DHT22;702;49.466;11.086;2022-12-20T03:34:04;1.80;85.30
1415;DHT22;702;49.466;11.086;2022-12-20T03:36:33;1.80;85.20
1415;DHT22;702;49.466;11.086;2022-12-20T03:39:00;1.80;85.20
1415;DHT22;702;49.466;11.086;2022-12-20T03:41:27;1.80;85.40
1415;DHT22;702;49.466;11.086;2022-12-20T03:43:54;1.80;85.50
1415;DHT22;702;49.466;11.086;2022-12-20T03:46:21;1.80;85.20
1415;DHT22;702;49.466;11.086;2022-12-20T03:48:49;2.00;85.00
1415;DHT22;702;49.466;11.086;2022-12-20T03:51:16;2.00;84.00
1415;DHT22;702;49.466;11.086;2022-12-20T03:53:45;2.00;83.80
1415;DHT22;702;49.466;11.086;2022-12-20T03:56:12;1.90;84.20
1415;DHT22;702;49.466;11.086;2022-12-20T03:58:39;2.00;84.20
1415;DHT22;702;49.466;11.086;2022-12-20T04:01:17;2.00;83.90
1415;DHT22;702;49.466;11.086;2022-12-20T04:03:48;2.00;84.10
1415;DHT22;702;49.466;11.086;2022-12-20T04:06:15;1.90;83.90
1415;DHT22;702;49.466;11.086;2022-12-20T04:08:45;1.90;84.30
1415;DHT22;702;49.466;11.086;2022-12-20T04:11:12;1.90;84.30
1415;DHT22;702;49.466;11.086;2022-12-20T04:13:43;1.90;84.10
1415;DHT22;702;49.466;11.086;2022-12-20T04:16:11;1.90;84.00
1415;DHT22;702;49.466;11.086;2022-12-20T04:18:38;1.90;83.90
1415;DHT22;702;49.466;11.086;2022-12-20T04:21:06;1.80;84.10
1415;DHT22;702;49.466;11.086;2022-12-20T04:23:34;1.80;84.30
1415;DHT22;702;49.466;11.086;2022-12-20T04:26:05;1.70;85.30
1415;DHT22;702;49.466;11.086;2022-12-20T04:28:33;1.70;85.70
1415;DHT22;702;49.466;11.086;2022-12-20T04:31:01;1.60;86.40
1415;DHT22;702;49.466;11.086;2022-12-20T04:33:28;1.60;85.90
1415;DHT22;702;49.466;11.086;2022-12-20T04:35:56;1.60;86.50
1415;DHT22;702;49.466;11.086;2022-12-20T04:38:23;1.60;86.50
1415;DHT22;702;49.466;11.086;2022-12-20T04:40:53;1.60;86.40
1415;DHT22;702;49.466;11.086;2022-12-20T04:43:22;1.60;86.90
1415;DHT22;702;49.466;11.086;2022-12-20T04:45:51;1.60;87.30
1415;DHT22;702;49.466;11.086;2022-12-20T04:48:21;1.60;87.10
1415;DHT22;702;49.466;11.086;2022-12-20T04:50:50;1.60;87.60
1415;DHT22;702;49.466;11.086;2022-12-20T04:53:19;1.70;87.50
1415;DHT22;702;49.466;11.086;2022-12-20T04:56:04;1.70;86.70
1415;DHT22;702;49.466;11.086;2022-12-20T04:58:33;1.60;86.80
1415;DHT22;702;49.466;11.086;2022-12-20T05:01:00;1.60;87.20
1415;DHT22;702;49.466;11.086;2022-12-20T05:03:27;1.60;87.00
1415;DHT22;702;49.466;11.086;2022-12-20T05:05:54;1.60;87.30
1415;DHT22;702;49.466;11.086;2022-12-20T05:08:22;1.50;87.90
1415;DHT22;702;49.466;11.086;2022-12-20T05:10:49;1.60;87.50
1415;DHT22;702;49.466;11.086;2022-12-20T05:13:17;1.60;87.90
1415;DHT22;702;49.466;11.086;2022-12-20T05:15:49;1.60;87.10
1415;DHT22;702;49.466;11.086;2022-12-20T05:18:18;1.60;87.30
1415;DHT22;702;49.466;11.086;2022-12-20T05:20:46;1.60;87.50
1415;DHT22;702;49.466;11.086;2022-12-20T05:23:34;1.60;87.50
1415;DHT22;702;49.466;11.086;2022-12-20T05:26:19;1.50;88.10
1415;DHT22;702;49.466;11.086;2022-12-20T05:28:47;1.50;88.50
1415;DHT22;702;49.466;11.086;2022-12-20T05:31:15;1.50;88.50
1415;DHT22;702;49.466;11.086;2022-12-20T05:33:42;1.50;88.50
1415;DHT22;702;49.466;11.086;2022-12-20T05:36:10;1.60;88.10
1415;DHT22;702;49.466;11.086;2022-12-20T05:38:37;1.60;87.60
1415;DHT22;702;49.466;11.086;2022-12-20T05:41:04;1.60;87.30
1415;DHT22;702;49.466;11.086;2022-12-20T05:43:32;1.60;87.60
1415;DHT22;702;49.466;11.086;2022-12-20T05:45:59;1.60;87.30
1415;DHT22;702;49.466;11.086;2022-12-20T05:48:27;1.60;87.50
1415;DHT22;702;49.466;11.086;2022-12-20T05:50:55;1.70;87.30
1415;DHT22;702;49.466;11.086;2022-12-20T05:53:22;1.80;86.90
1415;DHT22;702;49.466;11.086;2022-12-20T05:55:51;1.70;87.20
1415;DHT22;702;49.466;11.086;2022-12-20T05:58:19;1.80;86.40
1415;DHT22;702;49.466;11.086;2022-12-20T06:00:46;1.90;86.10
1415;DHT22;702;49.466;11.086;2022-12-20T06:03:13;2.00;85.90
1415;DHT22;702;49.466;11.086;2022-12-20T06:05:43;2.00;85.20
1415;DHT22;702;49.466;11.086;2022-12-20T06:08:11;2.00;85.40
1415;DHT22;702;49.466;11.086;2022-12-20T06:10:40;2.10;85.30
1415;DHT22;702;49.466;11.086;2022-12-20T06:13:08;2.10;85.00
1415;DHT22;702;49.466;11.086;2022-12-20T06:15:35;2.10;85.30
1415;DHT22;702;49.466;11.086;2022-12-20T06:18:04;2.10;85.20
1415;DHT22;702;49.466;11.086;2022-12-20T06:20:32;2.10;85.30
1415;DHT22;702;49.466;11.086;2022-12-20T06:23:01;2.10;85.10
1415;DHT22;702;49.466;11.086;2022-12-20T06:25:28;2.20;84.70
1415;DHT22;702;49.466;11.086;2022-12-20T06:27:55;2.20;84.30
1415;DHT22;702;49.466;11.086;2022-12-20T06:30:23;2.20;84.30
1415;DHT22;702;49.466;11.086;2022-12-20T06:32:50;2.10;84.80
1415;DHT22;702;49.466;11.086;2022-12-20T06:35:17;2.30;84.50
1415;DHT22;702;49.466;11.086;2022-12-20T06:37:45;2.20;84.10
1415;DHT22;702;49.466;11.086;2022-12-20T06:40:14;2.20;84.10
1415;DHT22;702;49.466;11.086;2022-12-20T06:42:41;2.20;84.20
1415;DHT22;702;49.466;11.086;2022-12-20T06:45:09;2.20;84.10
1415;DHT22;702;49.466;11.086;2022-12-20T06:47:36;2.40;84.60
1415;DHT22;702;49.466;11.086;2022-12-20T06:50:05;2.40;83.70
1415;DHT22;702;49.466;11.086;2022-12-20T06:52:33;2.50;83.10
1415;DHT22;702;49.466;11.086;2022-12-20T06:55:00;2.50;83.10
1415;DHT22;702;49.466;11.086;2022-12-20T06:57:28;2.70;84.40
1415;DHT22;702;49.466;11.086;2022-12-20T06:59:56;2.70;82.90
1415;DHT22;702;49.466;11.086;2022-12-20T07:02:23;2.60;82.20
1415;DHT22;702;49.466;11.086;2022-12-20T07:04:50;2.60;82.70
1415;DHT22;702;49.466;11.086;2022-12-20T07:07:17;2.60;82.10
1415;DHT22;702;49.466;11.086;2022-12-20T07:09:45;2.70;82.70
1415;DHT22;702;49.466;11.086;2022-12-20T07:12:12;2.70;82.40
1415;DHT22;702;49.466;11.086;2022-12-20T07:14:40;2.60;82.10
1415;DHT22;702;49.466;11.086;2022-12-20T07:17:08;2.70;82.30
1415;DHT22;702;49.466;11.086;2022-12-20T07:19:35;2.70;82.20
1415;DHT22;702;49.466;11.086;2022-12-20T07:22:02;2.70;81.80
1415;DHT22;702;49.466;11.086;2022-12-20T07:24:30;2.60;82.10
1415;DHT22;702;49.466;11.086;2022-12-20T07:26:57;2.70;82.70
1415;DHT22;702;49.466;11.086;2022-12-20T07:29:24;2.60;82.30
1415;DHT22;702;49.466;11.086;2022-12-20T07:31:53;2.60;82.50
1415;DHT22;702;49.466;11.086;2022-12-20T07:34:20;2.60;82.70
1415;DHT22;702;49.466;11.086;2022-12-20T07:36:48;2.60;82.10
1415;DHT22;702;49.466;11.086;2022-12-20T07:39:15;2.50;82.40
1415;DHT22;702;49.466;11.086;2022-12-20T07:41:44;2.50;82.80
1415;DHT22;702;49.466;11.086;2022-12-20T07:44:11;2.50;82.90
1415;DHT22;702;49.466;11.086;2022-12-20T07:46:38;2.50;82.70
1415;DHT22;702;49.466;11.086;2022-12-20T07:49:08;2.50;82.60
1415;DHT22;702;49.466;11.086;2022-12-20T07:51:37;2.60;82.70
1415;DHT22;702;49.466;11.086;2022-12-20T07:54:10;2.60;82.70
1415;DHT22;702;49.466;11.086;2022-12-20T07:56:42;2.60;82.60
1415;DHT22;702;49.466;11.086;2022-12-20T07:59:13;2.70;82.00
1415;DHT22;702;49.466;11.086;2022-12-20T08:01:43;2.70;82.10
1415;DHT22;702;49.466;11.086;2022-12-20T08:04:15;2.70;82.20
1415;DHT22;702;49.466;11.086;2022-12-20T08:06:44;2.70;82.50
1415;DHT22;702;49.466;11.086;2022-12-20T08:09:13;2.70;82.40
1415;DHT22;702;49.466;11.086;2022-12-20T08:11:43;2.70;82.50
1415;DHT22;702;49.466;11.086;2022-12-20T08:14:12;2.70;82.40
1415;DHT22;702;49.466;11.086;2022-12-20T08:16:40;2.70;82.50
1415;DHT22;702;49.466;11.086;2022-12-20T08:19:08;2.80;82.40
1415;DHT22;702;49.466;11.086;2022-12-20T08:21:36;2.90;82.30
1415;DHT22;702;49.466;11.086;2022-12-20T08:24:04;2.90;82.10
1415;DHT22;702;49.466;11.086;2022-12-20T08:26:36;3.00;81.90
1415;DHT22;702;49.466;11.086;2022-12-20T08:29:04;3.00;81.60
1415;DHT22;702;49.466;11.086;2022-12-20T08:31:31;3.10;81.30
1415;DHT22;702;49.466;11.086;2022-12-20T08:33:59;3.20;81.40
1415;DHT22;702;49.466;11.086;2022-12-20T08:36:26;3.20;81.40
1415;DHT22;702;49.466;11.086;2022-12-20T08:38:54;3.20;81.20
1415;DHT22;702;49.466;11.086;2022-12-20T08:41:21;3.20;81.50
1415;DHT22;702;49.466;11.086;2022-12-20T08:43:49;3.20;81.30
1415;DHT22;702;49.466;11.086;2022-12-20T08:46:16;3.30;81.10
1415;DHT22;702;49.466;11.086;2022-12-20T08:48:43;3.40;81.10
1415;DHT22;702;49.466;11.086;2022-12-20T08:51:11;3.50;80.70
1415;DHT22;702;49.466;11.086;2022-12-20T08:53:38;3.50;80.60
1415;DHT22;702;49.466;11.086;2022-12-20T08:56:09;3.50;80.60
1415;DHT22;702;49.466;11.086;2022-12-20T08:58:38;3.60;80.40
1415;DHT22;702;49.466;11.086;2022-12-20T09:01:08;3.80;79.80
1415;DHT22;702;49.466;11.086;2022-12-20T09:03:37;3.90;79.60
1415;DHT22;702;49.466;11.086;2022-12-20T09:06:07;4.00;79.50
1415;DHT22;702;49.466;11.086;2022-12-20T09:08:36;4.10;78.90
1415;DHT22;702;49.466;11.086;2022-12-20T09:11:05;4.10;78.90
1415;DHT22;702;49.466;11.086;2022-12-20T09:13:37;4.00;79.00
1415;DHT22;702;49.466;11.086;2022-12-20T09:16:06;4.10;78.80
1415;DHT22;702;49.466;11.086;2022-12-20T09:18:34;4.20;78.80
1415;DHT22;702;49.466;11.086;2022-12-20T09:21:03;4.30;78.50
1415;DHT22;702;49.466;11.086;2022-12-20T09:23:32;4.30;78.30
1415;DHT22;702;49.466;11.086;2022-12-20T09:26:01;4.30;78.30
1415;DHT22;702;49.466;11.086;2022-12-20T09:28:31;4.40;78.20
1415;DHT22;702;49.466;11.086;2022-12-20T09:30:59;4.60;77.80
1415;DHT22;702;49.466;11.086;2022-12-20T09:33:27;4.70;77.50
1415;DHT22;702;49.466;11.086;2022-12-20T09:35:56;4.60;77.30
1415;DHT22;702;49.466;11.086;2022-12-20T09:38:24;4.40;77.70
1415;DHT22;702;49.466;11.086;2022-12-20T09:40:54;4.30;77.80
1415;DHT22;702;49.466;11.086;2022-12-20T09:43:24;4.20;78.40
1415;DHT22;702;49.466;11.086;2022-12-20T09:45:57;4.10;78.20
1415;DHT22;702;49.466;11.086;2022-12-20T09:48:30;4.30;78.30
1415;DHT22;702;49.466;11.086;2022-12-20T09:51:11;4.30;78.30
1415;DHT22;702;49.466;11.086;2022-12-20T09:53:50;4.40;78.00
1415;DHT22;702;49.466;11.086;2022-12-20T09:56:26;4.40;77.90
1415;DHT22;702;49.466;11.086;2022-12-20T09:59:02;4.40;77.80
1415;DHT22;702;49.466;11.086;2022-12-20T10:01:33;4.30;78.00
1415;DHT22;702;49.466;11.086;2022-12-20T10:04:03;4.20;78.20
1415;DHT22;702;49.466;11.086;2022-12-20T10:06:39;4.10;78.20
1415;DHT22;702;49.466;11.086;2022-12-20T10:09:25;4.00;78.30
1415;DHT22;702;49.466;11.086;2022-12-20T10:12:23;4.00;78.80
1415;DHT22;702;49.466;11.086;2022-12-20T10:15:02;4.00;78.60
1415;DHT22;702;49.466;11.086;2022-12-20T10:17:49;4.10;78.40
1415;DHT22;702;49.466;11.086;2022-12-20T10:20:34;4.20;78.60
1415;DHT22;702;49.466;11.086;2022-12-20T10:23:12;4.20;78.40
1415;DHT22;702;49.466;11.086;2022-12-20T10:25:42;4.20;78.40
1415;DHT22;702;49.466;11.086;2022-12-20T10:28:12;4.30;78.40
1415;DHT22;702;49.466;11.086;2022-12-20T10:30:41;4.30;78.10
1415;DHT22;702;49.466;11.086;2022-12-20T10:33:16;4.30;78.20
1415;DHT22;702;49.466;11.086;2022-12-20T10:35:46;4.40;78.30
1415;DHT22;702;49.466;11.086;2022-12-20T10:38:15;4.40;78.20
1415;DHT22;702;49.466;11.086;2022-12-20T10:40:44;4.50;78.10
1415;DHT22;702;49.466;11.086;2022-12-20T10:43:17;4.50;78.40
1415;DHT22;702;49.466;11.086;2022-12-20T10:45:55;4.70;78.10
1415;DHT22;702;49.466;11.086;2022-12-20T10:48:36;4.60;78.00
1415;DHT22;702;49.466;11.086;2022-12-20T10:51:13;4.70;77.90
1415;DHT22;702;49.466;11.086;2022-12-20T10:53:54;4.90;78.00
1415;DHT22;702;49.466;11.086;2022-12-20T10:56:24;5.10;77.40
1415;DHT22;702;49.466;11.086;2022-12-20T10:58:56;5.10;77.00
1415;DHT22;702;49.466;11.086;2022-12-20T11:01:27;5.00;77.10
1415;DHT22;702;49.466;11.086;2022-12-20T11:03:59;5.00;77.10
1415;DHT22;702;49.466;11.086;2022-12-20T11:06:40;5.00;77.10
1415;DHT22;702;49.466;11.086;2022-12-20T11:09:24;5.20;77.10
1415;DHT22;702;49.466;11.086;2022-12-20T11:12:04;5.20;76.70
1415;DHT22;702;49.466;11.086;2022-12-20T11:14:35;5.20;76.90
1415;DHT22;702;49.466;11.086;2022-12-20T11:17:05;5.30;76.60
1415;DHT22;702;49.466;11.086;2022-12-20T11:19:57;5.50;76.80
1415;DHT22;702;49.466;11.086;2022-12-20T11:22:45;5.60;76.20
1415;DHT22;702;49.466;11.086;2022-12-20T11:25:28;5.60;76.10
1415;DHT22;702;49.466;11.086;2022-12-20T11:28:16;5.60;76.10
1415;DHT22;702;49.466;11.086;2022-12-20T11:30:57;5.80;76.10
1415;DHT22;702;49.466;11.086;2022-12-20T11:33:44;5.90;75.80
1415;DHT22;702;49.466;11.086;2022-12-20T11:36:29;5.90;75.50
1415;DHT22;702;49.466;11.086;2022-12-20T11:39:12;6.10;75.30
1415;DHT22;702;49.466;11.086;2022-12-20T11:41:47;6.30;74.80
1415;DHT22;702;49.466;11.086;2022-12-20T11:44:24;6.10;74.80
1415;DHT22;702;49.466;11.086;2022-12-20T11:47:09;6.10;75.10
1415;DHT22;702;49.466;11.086;2022-12-20T11:50:02;6.00;75.20
1415;DHT22;702;49.466;11.086;2022-12-20T11:52:44;6.00;75.00
1415;DHT22;702;49.466;11.086;2022-12-20T11:55:17;5.90;75.10
1415;DHT22;702;49.466;11.086;2022-12-20T11:57:55;5.80;75.30
1415;DHT22;702;49.466;11.086;2022-12-20T12:00:24;5.70;75.40
1415;DHT22;702;49.466;11.086;2022-12-20T12:02:55;5.60;75.80
1415;DHT22;702;49.466;11.086;2022-12-20T12:05:27;5.50;75.90
1415;DHT22;702;49.466;11.086;2022-12-20T12:08:00;5.50;76.10
1415;DHT22;702;49.466;11.086;2022-12-20T12:10:33;5.40;76.40
1415;DHT22;702;49.466;11.086;2022-12-20T12:13:06;5.50;76.30
1415;DHT22;702;49.466;11.086;2022-12-20T12:15:45;5.50;76.40
1415;DHT22;702;49.466;11.086;2022-12-20T12:18:18;5.50;76.40
1415;DHT22;702;49.466;11.086;2022-12-20T12:20:51;5.40;76.30
1415;DHT22;702;49.466;11.086;2022-12-20T12:23:28;5.40;76.40
1415;DHT22;702;49.466;11.086;2022-12-20T12:26:04;5.40;76.40
1415;DHT22;702;49.466;11.086;2022-12-20T12:28:36;5.50;76.30
1415;DHT22;702;49.466;11.086;2022-12-20T12:31:06;5.50;76.20
1415;DHT22;702;49.466;11.086;2022-12-20T12:33:40;5.40;76.20
1415;DHT22;702;49.466;11.086;2022-12-20T12:36:36;5.50;76.50
1415;DHT22;702;49.466;11.086;2022-12-20T12:39:35;5.40;76.40
1415;DHT22;702;49.466;11.086;2022-12-20T12:42:34;5.30;76.40
1415;DHT22;702;49.466;11.086;2022-12-20T12:45:15;5.50;76.50
1415;DHT22;702;49.466;11.086;2022-12-20T12:47:49;5.70;76.00
1415;DHT22;702;49.466;11.086;2022-12-20T12:50:23;5.90;76.00
1415;DHT22;702;49.466;11.086;2022-12-20T12:52:55;5.90;75.70
1415;DHT22;702;49.466;11.086;2022-12-20T12:55:40;6.10;75.50
1415;DHT22;702;49.466;11.086;2022-12-20T12:58:35;5.90;75.60
1415;DHT22;702;49.466;11.086;2022-12-20T13:01:04;5.70;75.80
1415;DHT22;702;49.466;11.086;2022-12-20T13:03:40;5.50;76.30
1415;DHT22;702;49.466;11.086;2022-12-20T13:09:46;5.40;76.60
1415;DHT22;702;49.466;11.086;2022-12-20T13:12:54;5.40;76.70
1415;DHT22;702;49.466;11.086;2022-12-20T13:15:46;5.60;76.60
1415;DHT22;702;49.466;11.086;2022-12-20T13:18:22;5.60;76.20
1415;DHT22;702;49.466;11.086;2022-12-20T13:21:16;5.50;76.30
1415;DHT22;702;49.466;11.086;2022-12-20T13:27:29;5.50;76.50
1415;DHT22;702;49.466;11.086;2022-12-20T13:30:24;5.60;76.40
1415;DHT22;702;49.466;11.086;2022-12-20T13:35:56;5.40;76.70
1415;DHT22;702;49.466;11.086;2022-12-20T13:38:49;5.50;76.70
1415;DHT22;702;49.466;11.086;2022-12-20T13:41:34;5.50;76.70
1415;DHT22;702;49.466;11.086;2022-12-20T13:47:27;5.50;76.60
1415;DHT22;702;49.466;11.086;2022-12-20T13:50:17;5.50;76.90
1415;DHT22;702;49.466;11.086;2022-12-20T13:52:49;5.50;76.80
1415;DHT22;702;49.466;11.086;2022-12-20T13:55:25;5.60;76.70
1415;DHT22;702;49.466;11.086;2022-12-20T13:57:57;5.60;76.70
1415;DHT22;702;49.466;11.086;2022-12-20T14:00:30;5.50;76.60
1415;DHT22;702;49.466;11.086;2022-12-20T14:03:00;5.50;76.70
1415;DHT22;702;49.466;11.086;2022-12-20T14:05:31;5.40;76.80
1415;DHT22;702;49.466;11.086;2022-12-20T14:08:01;5.50;76.90
1415;DHT22;702;49.466;11.086;2022-12-20T14:10:32;5.50;76.80
1415;DHT22;702;49.466;11.086;2022-12-20T14:13:01;5.30;77.40
1415;DHT22;702;49.466;11.086;2022-12-20T14:15:30;5.30;77.40
1415;DHT22;702;49.466;11.086;2022-12-20T14:18:15;5.20;77.50
1415;DHT22;702;49.466;11.086;2022-12-20T14:20:44;5.20;77.60
1415;DHT22;702;49.466;11.086;2022-12-20T14:23:15;5.20;77.70
1415;DHT22;702;49.466;11.086;2022-12-20T14:25:46;5.30;77.80
1415;DHT22;702;49.466;11.086;2022-12-20T14:28:21;5.20;77.60
1415;DHT22;702;49.466;11.086;2022-12-20T14:30:55;5.10;77.80
1415;DHT22;702;49.466;11.086;2022-12-20T14:33:29;5.10;77.90
1415;DHT22;702;49.466;11.086;2022-12-20T14:36:07;5.10;78.00
1415;DHT22;702;49.466;11.086;2022-12-20T14:38:35;5.00;78.20
1415;DHT22;702;49.466;11.086;2022-12-20T14:41:03;4.90;78.00
1415;DHT22;702;49.466;11.086;2022-12-20T14:43:33;5.00;78.20
1415;DHT22;702;49.466;11.086;2022-12-20T14:46:07;5.10;77.80
1415;DHT22;702;49.466;11.086;2022-12-20T14:48:43;5.20;77.90
1415;DHT22;702;49.466;11.086;2022-12-20T14:51:12;5.10;77.60
1415;DHT22;702;49.466;11.086;2022-12-20T14:53:43;5.00;77.80
1415;DHT22;702;49.466;11.086;2022-12-20T14:56:13;4.90;78.00
1415;DHT22;702;49.466;11.086;2022-12-20T14:58:44;4.90;78.30
1415;DHT22;702;49.466;11.086;2022-12-20T15:01:19;4.90;78.10
1415;DHT22;702;49.466;11.086;2022-12-20T15:03:50;4.80;78.30
1415;DHT22;702;49.466;11.086;2022-12-20T15:06:32;4.70;78.40
1415;DHT22;702;49.466;11.086;2022-12-20T15:09:01;4.70;78.70
1415;DHT22;702;49.466;11.086;2022-12-20T15:11:30;4.70;78.50
1415;DHT22;702;49.466;11.086;2022-12-20T15:13:57;4.70;78.60
1415;DHT22;702;49.466;11.086;2022-12-20T15:16:26;4.70;78.60
1415;DHT22;702;49.466;11.086;2022-12-20T15:18:57;4.60;78.60
1415;DHT22;702;49.466;11.086;2022-12-20T15:21:28;4.70;78.90
1415;DHT22;702;49.466;11.086;2022-12-20T15:23:59;4.70;78.90
1415;DHT22;702;49.466;11.086;2022-12-20T15:26:33;4.60;78.90
1415;DHT22;702;49.466;11.086;2022-12-20T15:29:00;4.60;79.00
1415;DHT22;702;49.466;11.086;2022-12-20T15:31:28;4.50;79.20
1415;DHT22;702;49.466;11.086;2022-12-20T15:33:57;4.60;79.10
1415;DHT22;702;49.466;11.086;2022-12-20T15:36:29;4.60;79.10
1415;DHT22;702;49.466;11.086;2022-12-20T15:38:58;4.60;79.10
1415;DHT22;702;49.466;11.086;2022-12-20T15:41:27;4.60;79.10
1415;DHT22;702;49.466;11.086;2022-12-20T15:43:58;4.60;79.20
1415;DHT22;702;49.466;11.086;2022-12-20T15:46:26;4.60;79.30
1415;DHT22;702;49.466;11.086;2022-12-20T15:48:53;4.70;79.50
1415;DHT22;702;49.466;11.086;2022-12-20T15:51:26;4.70;79.10
1415;DHT22;702;49.466;11.086;2022-12-20T15:53:54;4.70;79.20
1415;DHT22;702;49.466;11.086;2022-12-20T15:56:23;4.70;79.00
1415;DHT22;702;49.466;11.086;2022-12-20T15:58:51;4.80;79.10
1415;DHT22;702;49.466;11.086;2022-12-20T16:01:20;4.70;79.20
1415;DHT22;702;49.466;11.086;2022-12-20T16:03:50;4.70;79.10
1415;DHT22;702;49.466;11.086;2022-12-20T16:06:17;4.70;79.20
1415;DHT22;702;49.466;11.086;2022-12-20T16:08:45;4.70;79.20
1415;DHT22;702;49.466;11.086;2022-12-20T16:11:19;4.60;79.00
1415;DHT22;702;49.466;11.086;2022-12-20T16:13:47;4.60;79.30
1415;DHT22;702;49.466;11.086;2022-12-20T16:16:16;4.50;79.20
1415;DHT22;702;49.466;11.086;2022-12-20T16:18:45;4.60;79.50
1415;DHT22;702;49.466;11.086;2022-12-20T16:21:15;4.50;79.40
1415;DHT22;702;49.466;11.086;2022-12-20T16:23:43;4.40;79.50
1415;DHT22;702;49.466;11.086;2022-12-20T16:26:13;4.40;79.60
1415;DHT22;702;49.466;11.086;2022-12-20T16:28:41;4.40;79.70
1415;DHT22;702;49.466;11.086;2022-12-20T16:31:10;4.40;79.70
1415;DHT22;702;49.466;11.086;2022-12-20T16:33:52;4.30;79.80
1415;DHT22;702;49.466;11.086;2022-12-20T16:36:20;4.30;80.00
1415;DHT22;702;49.466;11.086;2022-12-20T16:38:49;4.30;79.90
1415;DHT22;702;49.466;11.086;2022-12-20T16:41:18;4.30;80.00
1415;DHT22;702;49.466;11.086;2022-12-20T16:43:47;4.30;80.10
1415;DHT22;702;49.466;11.086;2022-12-20T16:46:17;4.30;80.30
1415;DHT22;702;49.466;11.086;2022-12-20T16:48:46;4.30;80.50
1415;DHT22;702;49.466;11.086;2022-12-20T16:51:22;4.20;80.60
1415;DHT22;702;49.466;11.086;2022-12-20T16:53:53;4.30;80.60
1415;DHT22;702;49.466;11.086;2022-12-20T16:56:21;4.30;80.50
1415;DHT22;702;49.466;11.086;2022-12-20T16:58:49;4.30;80.60
1415;DHT22;702;49.466;11.086;2022-12-20T17:01:17;4.30;80.50